Time;durP1;ratioP1;P1;durP2;ratioP2;P2;SDS_P1;SDS_P2;PMS_P1;PMS_P2;Temp;Humidity;BMP_temperature;BMP_pressure;BME280_temperature;BME280_humidity;BME280_pressure;Samples;Min_cycle;Max_cycle;Signal;HPM_P1;HPM_P2
2023/03/22 00:02:03;;;;;;;17.27;10.80;;;7.20;99.90;6.40;100022;;;;599353;236;24094;-78
2023/03/22 00:04:30;;;;;;;21.40;11.23;;;7.20;99.90;6.40;100012;;;;598903;236;24027;-76
2023/03/22 00:06:55;;;;;;;16.10;9.60;;;7.30;99.90;6.40;100004;;;;596524;236;24043;-80
2023/03/22 00:09:24;;;;;;;16.40;9.37;;;7.30;99.90;6.50;100004;;;;599304;236;24023;-77
2023/03/22 00:11:52;;;;;;;17.00;9.50;;;7.30;99.90;6.50;100007;;;;599302;236;24036;-79
2023/03/22 00:14:20;;;;;;;22.50;11.13;;;7.30;99.90;6.50;100000;;;;599322;236;24107;-77
2023/03/22 00:16:48;;;;;;;15.57;8.93;;;7.30;99.90;6.50;99997;;;;599015;236;24047;-77
2023/03/22 00:19:16;;;;;;;14.37;8.37;;;7.30;99.90;6.50;99997;;;;598689;236;24021;-77
2023/03/22 00:21:48;;;;;;;13.23;9.37;;;7.30;99.90;6.50;99988;;;;598521;236;24060;-81
2023/03/22 00:24:12;;;;;;;20.77;9.13;;;7.30;99.90;6.50;99990;;;;598584;236;24029;-78
2023/03/22 00:26:40;;;;;;;14.27;8.23;;;7.30;99.90;6.60;99992;;;;599017;236;24068;-79
2023/03/22 00:29:08;;;;;;;14.20;8.43;;;7.40;99.90;6.60;99982;;;;599045;236;25095;-79
2023/03/22 00:31:40;;;;;;;13.17;7.43;;;7.40;99.90;6.60;99995;;;;599061;236;24053;-79
2023/03/22 00:34:04;;;;;;;17.33;8.57;;;7.40;99.90;6.70;99991;;;;598864;236;24025;-78
2023/03/22 00:36:33;;;;;;;14.10;8.23;;;7.50;99.90;6.70;99984;;;;599058;236;24111;-81
2023/03/22 00:39:01;;;;;;;16.90;8.37;;;7.50;99.90;6.70;99983;;;;599106;236;24075;-78
2023/03/22 00:41:29;;;;;;;15.77;8.43;;;7.50;99.90;6.80;99982;;;;599018;236;25056;-80
2023/03/22 00:43:56;;;;;;;12.97;8.53;;;7.60;99.90;6.80;99980;;;;599002;236;24028;-79
2023/03/22 00:46:24;;;;;;;17.93;9.50;;;7.60;99.90;6.80;99976;;;;599001;236;24076;-79
2023/03/22 00:48:52;;;;;;;16.50;8.73;;;7.60;99.90;6.80;99968;;;;599004;236;24020;-79
2023/03/22 00:51:20;;;;;;;13.60;8.40;;;7.60;99.90;6.80;99967;;;;599948;235;24073;-76
2023/03/22 00:53:49;;;;;;;13.77;7.57;;;7.70;99.90;6.90;99961;;;;600280;236;24080;-79
2023/03/22 00:56:17;;;;;;;14.27;8.87;;;7.70;99.90;6.90;99972;;;;599918;236;24044;-78
2023/03/22 00:58:45;;;;;;;13.53;8.57;;;7.70;99.90;6.90;99964;;;;599512;236;24015;-78
2023/03/22 01:01:12;;;;;;;15.33;9.73;;;7.70;99.90;6.90;99964;;;;599226;236;24035;-76
2023/03/22 01:03:40;;;;;;;12.10;8.23;;;7.70;99.90;6.90;99965;;;;599319;236;24008;-78
2023/03/22 01:06:08;;;;;;;17.33;9.37;;;7.70;99.90;6.90;99955;;;;599174;236;24027;-75
2023/03/22 01:08:37;;;;;;;12.03;8.67;;;7.70;99.90;6.90;99956;;;;599045;236;25047;-75
2023/03/22 01:11:08;;;;;;;15.80;9.97;;;7.70;99.90;6.90;99949;;;;598952;236;24036;-80
2023/03/22 01:13:37;;;;;;;20.73;14.05;;;7.70;99.90;6.90;99942;;;;593404;236;34861;-76
2023/03/22 01:16:01;;;;;;;16.63;10.93;;;7.70;99.90;6.90;99942;;;;598497;236;24028;-80
2023/03/22 01:18:29;;;;;;;17.43;10.60;;;7.70;99.90;6.90;99938;;;;598928;236;24012;-77
2023/03/22 01:20:57;;;;;;;16.80;11.13;;;7.70;99.90;6.90;99946;;;;599338;236;24056;-76
2023/03/22 01:23:24;;;;;;;15.83;10.47;;;7.70;99.90;6.90;99940;;;;599268;236;24075;-79
2023/03/22 01:25:55;;;;;;;15.20;9.23;;;7.70;99.90;6.90;99938;;;;598857;236;24012;-74
2023/03/22 01:28:20;;;;;;;18.43;9.97;;;7.70;99.90;6.90;99926;;;;598585;236;24085;-78
2023/03/22 01:30:49;;;;;;;16.57;10.60;;;7.70;99.90;7.00;99927;;;;608202;236;24013;-78
2023/03/22 01:33:19;;;;;;;17.80;9.73;;;7.70;99.90;7.00;99914;;;;598753;236;24057;-79
2023/03/22 01:35:44;;;;;;;19.00;10.37;;;7.70;99.90;7.00;99913;;;;608059;236;24031;-80
2023/03/22 01:38:12;;;;;;;20.33;10.63;;;7.80;99.90;7.00;99914;;;;598589;236;24025;-79
2023/03/22 01:40:41;;;;;;;19.43;10.70;;;7.80;99.90;7.00;99921;;;;598746;236;24069;-80
2023/03/22 01:43:14;;;;;;;19.00;10.53;;;7.70;99.90;7.00;99912;;;;598625;236;24018;-76
2023/03/22 01:45:42;;;;;;;17.40;10.53;;;7.80;99.90;7.00;99908;;;;598609;236;24010;-78
2023/03/22 01:48:18;;;;;;;20.10;11.07;;;7.80;99.90;7.00;99905;;;;598397;236;24037;-76
2023/03/22 01:50:46;;;;;;;26.60;18.42;;;7.80;99.90;7.00;99899;;;;593254;236;34948;-79
2023/03/22 01:53:18;;;;;;;20.63;13.60;;;7.80;99.90;7.10;99894;;;;597738;236;24025;-77
2023/03/22 01:55:47;;;;;;;18.77;11.20;;;7.90;99.90;7.10;99890;;;;598748;236;24053;-78
2023/03/22 01:58:14;;;;;;;20.97;11.60;;;7.80;99.90;7.10;99891;;;;598244;236;24060;-80
2023/03/22 02:00:43;;;;;;;18.17;11.77;;;7.90;99.90;7.10;99896;;;;598332;236;24021;-76
2023/03/22 02:03:07;;;;;;;20.57;12.90;;;7.90;99.90;7.10;99881;;;;599374;235;24090;-79
2023/03/22 02:05:36;;;;;;;23.40;12.63;;;7.90;99.90;7.10;99887;;;;599958;236;24018;-79
2023/03/22 02:08:08;;;;;;;20.70;12.57;;;7.90;99.90;7.10;99883;;;;599745;236;24017;-76
2023/03/22 02:10:32;;;;;;;26.63;11.67;;;7.90;99.90;7.10;99885;;;;599024;236;24060;-80
2023/03/22 02:13:33;;;;;;;19.27;11.30;;;7.90;99.90;7.10;99880;;;;599121;236;24066;-80
2023/03/22 02:16:10;;;;;;;17.03;11.30;;;7.90;99.90;7.10;99869;;;;599075;236;24045;-78
2023/03/22 02:19:02;;;;;;;25.87;19.37;;;7.90;99.90;7.10;99867;;;;581079;236;45961;-78
2023/03/22 02:22:01;;;;;;;21.93;14.60;;;7.90;99.90;7.10;99870;;;;599422;236;24073;-79
2023/03/22 02:24:50;;;;;;;24.43;12.67;;;7.90;99.90;7.10;99863;;;;599360;236;24042;-80
2023/03/22 02:27:39;;;;;;;24.17;13.50;;;7.90;99.90;7.20;99869;;;;597361;236;24079;-79
2023/03/22 02:30:25;;;;;;;18.07;11.23;;;7.90;99.90;7.20;99861;;;;599480;236;24028;-80
2023/03/22 02:33:17;;;;;;;23.57;12.17;;;7.90;99.90;7.20;99866;;;;589695;240;24051;-79
2023/03/22 02:36:10;;;;;;;20.43;12.73;;;8.00;99.90;7.20;99875;;;;573079;247;24103;-79
2023/03/22 02:38:46;;;;;;;21.37;12.17;;;8.00;99.90;7.20;99859;;;;580988;242;24075;-79
2023/03/22 02:41:56;;;;;;;21.57;13.80;;;8.00;99.90;7.20;99861;;;;582710;242;25117;-80
2023/03/22 02:44:48;;;;;;;23.70;12.77;;;8.00;99.90;7.30;99852;;;;583410;242;24099;-79
2023/03/22 02:47:40;;;;;;;24.37;12.50;;;8.00;99.90;7.30;99845;;;;591800;242;24068;-78
2023/03/22 02:50:14;;;;;;;24.03;12.87;;;8.00;99.90;7.30;99852;;;;583415;242;24057;-81
2023/03/22 02:52:55;;;;;;;22.63;12.90;;;8.10;99.90;7.30;99857;;;;594292;238;24050;-79
2023/03/22 02:55:34;;;;;;;22.03;13.70;;;8.10;99.90;7.40;99856;;;;598543;236;24005;-79
2023/03/22 02:58:10;;;;;;;27.23;14.10;;;8.10;99.90;7.40;99853;;;;598711;236;24030;-78
2023/03/22 03:00:42;;;;;;;26.60;13.43;;;8.20;99.90;7.40;99853;;;;598545;236;24021;-79
2023/03/22 03:03:13;;;;;;;24.67;12.40;;;8.20;99.90;7.50;99844;;;;592302;236;24033;-77
2023/03/22 03:05:50;;;;;;;25.30;12.90;;;8.20;99.90;7.50;99849;;;;598710;236;24037;-79
2023/03/22 03:08:22;;;;;;;25.67;13.93;;;8.30;99.90;7.50;99847;;;;598809;236;24043;-77
2023/03/22 03:10:49;;;;;;;21.67;12.50;;;8.30;99.90;7.60;99845;;;;607712;236;24027;-77
2023/03/22 03:13:14;;;;;;;23.07;12.83;;;8.30;99.90;7.60;99844;;;;607699;236;24034;-76
2023/03/22 03:15:42;;;;;;;20.37;12.63;;;8.30;99.90;7.60;99843;;;;600089;236;24013;-79
2023/03/22 03:18:28;;;;;;;23.70;13.20;;;8.30;99.90;7.60;99836;;;;599706;236;24081;-79
2023/03/22 03:21:41;;;;;;;20.17;12.43;;;8.40;99.90;7.60;99839;;;;599994;236;24016;-78
2023/03/22 03:24:25;;;;;;;21.43;13.10;;;8.40;99.90;7.60;99845;;;;609546;235;24012;-77
2023/03/22 03:27:16;;;;;;;22.77;13.17;;;8.30;99.90;7.60;99834;;;;599656;236;24032;-76
2023/03/22 03:29:49;;;;;;;22.43;13.23;;;8.40;99.90;7.60;99844;;;;594526;233;24024;-75
2023/03/22 03:32:26;;;;;;;19.80;11.77;;;8.40;99.90;7.60;99838;;;;599974;236;24177;-76
2023/03/22 03:35:05;;;;;;;33.60;21.42;;;8.40;99.90;7.60;99836;;;;595433;236;35045;-75
2023/03/22 03:37:36;;;;;;;27.70;16.20;;;8.40;99.90;7.60;99834;;;;599702;236;24101;-74
2023/03/22 03:40:05;;;;;;;30.10;16.00;;;8.40;99.90;7.60;99832;;;;599946;236;24055;-77
2023/03/22 03:42:36;;;;;;;30.10;13.97;;;8.40;99.90;7.60;99828;;;;599570;236;24033;-73
2023/03/22 03:45:00;;;;;;;26.00;13.30;;;8.40;99.90;7.60;99841;;;;599914;236;25097;-75
2023/03/22 03:47:31;;;;;;;26.63;13.87;;;8.40;99.90;7.60;99837;;;;600273;236;24172;-77
2023/03/22 03:50:00;;;;;;;26.63;15.27;;;8.40;99.90;7.60;99840;;;;599063;236;24035;-80
2023/03/22 03:52:27;;;;;;;29.47;15.87;;;8.40;99.90;7.60;99837;;;;598787;236;24014;-79
2023/03/22 03:54:52;;;;;;;25.47;14.57;;;8.40;99.90;7.60;99836;;;;599009;236;24053;-82
2023/03/22 03:57:20;;;;;;;24.53;15.10;;;8.40;99.90;7.60;99829;;;;599166;236;24078;-81
2023/03/22 03:59:52;;;;;;;31.47;15.43;;;8.30;99.90;7.60;99826;;;;598592;236;24021;-80
2023/03/22 04:02:16;;;;;;;34.60;23.30;;;8.30;99.90;7.50;99822;;;;593107;236;45789;-79
2023/03/22 04:04:44;;;;;;;28.27;18.80;;;8.30;99.90;7.50;99825;;;;598697;236;24004;-80
2023/03/22 04:07:12;;;;;;;30.80;17.00;;;8.30;99.90;7.50;99832;;;;598603;236;24013;-79
2023/03/22 04:09:40;;;;;;;27.67;14.57;;;8.30;99.90;7.50;99825;;;;598739;236;24052;-80
2023/03/22 04:12:10;;;;;;;31.80;16.10;;;8.30;99.90;7.50;99826;;;;598676;236;24019;-79
2023/03/22 04:14:38;;;;;;;26.93;15.43;;;8.30;99.90;7.50;99823;;;;598850;236;24044;-79
2023/03/22 04:17:07;;;;;;;41.90;24.63;;;8.20;99.90;7.40;99823;;;;593588;236;34838;-79
2023/03/22 04:19:35;;;;;;;33.57;19.50;;;8.20;99.90;7.40;99819;;;;598568;236;24013;-79
2023/03/22 04:22:03;;;;;;;36.17;18.43;;;8.20;99.90;7.40;99810;;;;598665;236;24011;-80
2023/03/22 04:24:31;;;;;;;34.67;19.23;;;8.20;99.90;7.40;99807;;;;608268;236;24012;-79
2023/03/22 04:26:59;;;;;;;33.93;16.30;;;8.10;99.90;7.30;99810;;;;600461;236;24035;-80
2023/03/22 04:29:30;;;;;;;30.07;17.30;;;8.10;99.90;7.30;99820;;;;600209;236;24000;-79
2023/03/22 04:31:57;;;;;;;28.57;16.77;;;8.10;99.90;7.30;99829;;;;599455;236;24024;-79
2023/03/22 04:34:25;;;;;;;29.27;16.30;;;8.00;99.90;7.30;99821;;;;599475;236;24020;-77
2023/03/22 04:36:53;;;;;;;38.10;18.63;;;8.10;99.90;7.30;99818;;;;599170;236;24065;-76
2023/03/22 04:39:20;;;;;;;33.23;16.10;;;8.10;99.90;7.30;99804;;;;599112;236;24075;-77
2023/03/22 04:41:48;;;;;;;26.60;15.97;;;8.00;99.90;7.30;99796;;;;599178;236;24036;-76
2023/03/22 04:44:16;;;;;;;34.13;16.27;;;8.00;99.90;7.30;99796;;;;599138;236;24028;-79
2023/03/22 04:46:44;;;;;;;32.83;16.33;;;8.00;99.90;7.20;99799;;;;598981;236;24071;-79
2023/03/22 04:49:12;;;;;;;30.70;16.43;;;8.00;99.90;7.30;99804;;;;598828;236;24059;-79
2023/03/22 04:51:40;;;;;;;33.13;17.60;;;8.00;99.90;7.20;99794;;;;599013;236;24041;-79
2023/03/22 04:54:08;;;;;;;29.50;16.73;;;8.00;99.90;7.20;99796;;;;598860;236;24025;-76
2023/03/22 04:56:36;;;;;;;32.67;16.20;;;8.00;99.90;7.30;99791;;;;599069;236;24014;-76
2023/03/22 04:59:04;;;;;;;36.40;19.10;;;8.00;99.90;7.20;99786;;;;598893;236;24019;-76
2023/03/22 05:01:32;;;;;;;27.73;16.50;;;8.00;99.90;7.20;99786;;;;598924;236;24078;-76
2023/03/22 05:03:59;;;;;;;30.70;17.77;;;8.00;99.90;7.30;99780;;;;598641;236;24013;-76
2023/03/22 05:06:31;;;;;;;27.33;15.50;;;8.00;99.90;7.20;99767;;;;598534;236;24013;-76
2023/03/22 05:08:56;;;;;;;32.17;16.10;;;8.00;99.90;7.20;99779;;;;599008;236;24048;-77
2023/03/22 05:11:27;;;;;;;26.27;14.50;;;8.00;99.90;7.20;99772;;;;598959;236;24016;-77
2023/03/22 05:13:52;;;;;;;31.90;17.77;;;8.00;99.90;7.20;99776;;;;598715;236;24061;-77
2023/03/22 05:16:20;;;;;;;33.53;17.57;;;7.90;99.90;7.20;99761;;;;598994;236;24038;-76
2023/03/22 05:18:53;;;;;;;29.43;15.90;;;7.90;99.90;7.20;99770;;;;599038;236;24128;-75
2023/03/22 05:21:20;;;;;;;32.43;17.40;;;7.90;99.90;7.20;99763;;;;598764;236;24013;-76
2023/03/22 05:23:46;;;;;;;38.33;19.00;;;8.00;99.90;7.20;99767;;;;598896;236;24086;-76
2023/03/22 05:26:19;;;;;;;36.90;18.40;;;7.90;99.90;7.20;99768;;;;598719;236;24082;-76
2023/03/22 05:28:44;;;;;;;35.50;17.80;;;8.00;99.90;7.20;99761;;;;598464;236;24081;-77
2023/03/22 05:31:14;;;;;;;33.20;17.77;;;8.00;99.90;7.30;99765;;;;598741;236;24020;-77
2023/03/22 05:33:40;;;;;;;37.60;19.03;;;8.00;99.90;7.30;99763;;;;598970;236;24066;-80
2023/03/22 05:36:10;;;;;;;32.27;17.07;;;8.00;99.90;7.30;99760;;;;598987;236;24104;-79
2023/03/22 05:38:39;;;;;;;35.70;17.80;;;8.00;99.90;7.30;99755;;;;600460;236;24036;-80
2023/03/22 05:41:04;;;;;;;35.53;18.27;;;8.00;99.90;7.30;99759;;;;599894;236;24069;-80
2023/03/22 05:43:35;;;;;;;36.40;18.47;;;8.00;99.90;7.30;99762;;;;599967;236;24061;-80
2023/03/22 05:46:00;;;;;;;33.83;19.73;;;8.00;99.90;7.30;99768;;;;599709;236;24024;-81
2023/03/22 05:48:28;;;;;;;37.17;18.73;;;8.00;99.90;7.30;99769;;;;599661;236;23996;-80
2023/03/22 05:50:56;;;;;;;36.57;18.63;;;8.00;99.90;7.30;99767;;;;599647;236;24018;-82
2023/03/22 05:53:24;;;;;;;39.93;19.07;;;8.10;99.90;7.40;99772;;;;599659;236;24005;-80
2023/03/22 05:55:52;;;;;;;39.57;19.87;;;8.10;99.90;7.40;99771;;;;599533;236;24056;-80
2023/03/22 05:58:19;;;;;;;36.40;19.37;;;8.20;99.90;7.50;99777;;;;599198;236;24044;-78
2023/03/22 06:00:50;;;;;;;36.47;19.47;;;8.30;99.90;7.60;99783;;;;599063;236;24036;-80
2023/03/22 06:03:19;;;;;;;35.70;19.77;;;8.40;99.90;7.60;99776;;;;598893;236;24025;-80
2023/03/22 06:05:49;;;;;;;37.03;20.60;;;8.40;99.90;7.60;99766;;;;598803;236;24053;-79
2023/03/22 06:08:15;;;;;;;40.33;21.07;;;8.40;99.90;7.70;99767;;;;598808;236;24030;-77
2023/03/22 06:10:42;;;;;;;39.03;19.30;;;8.50;99.90;7.70;99769;;;;598788;236;24040;-76
2023/03/22 06:13:10;;;;;;;38.80;20.37;;;8.50;99.90;7.80;99766;;;;598896;236;24038;-76
2023/03/22 06:15:38;;;;;;;37.17;20.43;;;8.50;99.90;7.80;99779;;;;598623;236;24010;-77
2023/03/22 06:18:06;;;;;;;48.37;29.40;;;8.60;99.90;7.80;99783;;;;593586;236;34893;-77
2023/03/22 06:20:34;;;;;;;42.57;23.47;;;8.60;99.90;7.80;99779;;;;608231;236;24008;-77
2023/03/22 06:23:02;;;;;;;37.80;21.83;;;8.60;99.90;7.80;99772;;;;599586;236;24036;-78
2023/03/22 06:25:30;;;;;;;34.70;20.23;;;8.60;99.90;7.90;99771;;;;598654;236;24059;-78
2023/03/22 06:27:58;;;;;;;35.97;19.73;;;8.70;99.90;7.90;99780;;;;599030;236;24013;-78
2023/03/22 06:30:26;;;;;;;36.27;18.47;;;8.70;99.90;7.90;99790;;;;599019;236;24033;-79
2023/03/22 06:32:55;;;;;;;32.87;18.97;;;8.80;99.90;8.00;99777;;;;599012;236;25098;-78
2023/03/22 06:35:23;;;;;;;28.00;16.97;;;8.80;99.90;8.00;99782;;;;598429;236;24065;-77
2023/03/22 06:37:55;;;;;;;32.03;18.20;;;8.80;99.90;8.10;99784;;;;598648;236;24014;-80
2023/03/22 06:40:19;;;;;;;33.70;18.50;;;8.90;99.90;8.20;99782;;;;594795;236;24033;-76
2023/03/22 06:42:47;;;;;;;29.40;17.20;;;9.00;99.90;8.20;99774;;;;598750;236;24017;-79
2023/03/22 06:45:17;;;;;;;34.60;18.43;;;9.10;99.90;8.30;99782;;;;598571;236;24030;-79
2023/03/22 06:47:45;;;;;;;35.70;17.10;;;9.00;99.90;8.30;99785;;;;598708;236;24044;-79
2023/03/22 06:50:14;;;;;;;33.80;17.77;;;9.10;99.90;8.30;99781;;;;600137;236;24050;-80
2023/03/22 06:52:41;;;;;;;32.63;17.50;;;9.10;99.90;8.30;99777;;;;599658;236;24074;-78
2023/03/22 06:55:10;;;;;;;37.87;19.20;;;9.10;99.90;8.30;99780;;;;599595;236;24015;-77
2023/03/22 06:57:37;;;;;;;32.30;16.80;;;9.10;99.90;8.50;99773;;;;599326;236;25086;-79
2023/03/22 07:00:06;;;;;;;34.53;18.20;;;9.20;99.90;8.70;99775;;;;599655;236;24005;-79
2023/03/22 07:02:37;;;;;;;31.93;17.60;;;9.50;99.90;9.00;99785;;;;599662;236;24012;-77
2023/03/22 07:05:02;;;;;;;33.17;18.33;;;9.70;99.90;9.10;99782;;;;599251;236;24016;-80
2023/03/22 07:07:30;;;;;;;31.77;17.43;;;9.80;99.90;9.10;99773;;;;599459;236;24024;-80
2023/03/22 07:09:57;;;;;;;26.50;17.20;;;9.90;99.90;9.10;99773;;;;599397;236;24109;-81
2023/03/22 07:12:25;;;;;;;29.80;16.60;;;9.90;99.90;9.20;99767;;;;599306;236;24011;-81
2023/03/22 07:14:53;;;;;;;28.93;17.73;;;10.00;99.90;9.40;99772;;;;599341;236;24147;-80
2023/03/22 07:17:21;;;;;;;29.07;17.63;;;10.10;99.90;9.70;99781;;;;608949;235;24021;-81
2023/03/22 07:19:53;;;;;;;28.60;16.90;;;10.40;99.90;9.70;99774;;;;599414;236;24014;-80
2023/03/22 07:22:20;;;;;;;30.00;16.87;;;10.50;99.90;9.80;99775;;;;596502;236;24016;-80
2023/03/22 07:24:45;;;;;;;28.00;17.03;;;10.50;99.90;10.10;99764;;;;599036;236;24055;-80
2023/03/22 07:27:13;;;;;;;28.67;18.00;;;10.70;99.90;11.10;99763;;;;598592;236;24010;-81
2023/03/22 07:29:41;;;;;;;24.53;16.33;;;11.50;99.90;12.60;99778;;;;598721;236;24078;-80
2023/03/22 07:32:12;;;;;;;28.30;16.77;;;12.90;99.90;13.20;99773;;;;598666;236;24003;-77
2023/03/22 07:34:37;;;;;;;30.70;17.93;;;13.70;99.90;13.30;99774;;;;598690;236;24021;-80
2023/03/22 07:37:08;;;;;;;22.90;15.93;;;14.00;99.90;13.50;99775;;;;598586;236;24024;-80
2023/03/22 07:39:32;;;;;;;24.87;16.43;;;14.20;99.90;13.60;99773;;;;598144;236;24081;-80
2023/03/22 07:42:00;;;;;;;25.20;16.47;;;14.40;99.90;13.90;99768;;;;598722;236;24017;-79
2023/03/22 07:44:28;;;;;;;24.13;16.03;;;14.60;99.90;14.40;99764;;;;598578;236;24044;-81
2023/03/22 07:46:56;;;;;;;25.63;15.83;;;15.00;99.90;14.80;99767;;;;598717;236;24001;-78
2023/03/22 07:49:26;;;;;;;21.40;15.83;;;15.40;99.90;15.80;99777;;;;598673;236;24068;-79
2023/03/22 07:51:52;;;;;;;23.97;17.23;;;16.20;99.90;15.90;99759;;;;598535;236;24035;-78
2023/03/22 07:54:20;;;;;;;23.57;16.30;;;16.50;99.90;16.10;99760;;;;598720;236;24009;-80
2023/03/22 07:56:48;;;;;;;20.73;16.20;;;16.70;99.90;16.20;99780;;;;598575;236;23994;-79
2023/03/22 07:59:18;;;;;;;25.53;15.10;;;16.90;99.90;16.30;99770;;;;598487;236;24015;-80
2023/03/22 08:01:44;;;;;;;22.20;15.13;;;17.00;99.90;16.50;99772;;;;599895;236;24036;-80
2023/03/22 08:04:12;;;;;;;18.73;14.07;;;17.10;99.90;17.50;99768;;;;609317;235;24015;-80
2023/03/22 08:06:41;;;;;;;17.27;14.47;;;17.80;99.90;18.30;99776;;;;599559;236;24004;-77
2023/03/22 08:09:07;;;;;;;23.80;15.30;;;18.70;99.90;18.40;99770;;;;599294;236;23089;-79
2023/03/22 08:11:36;;;;;;;19.27;15.03;;;19.10;99.90;18.40;99773;;;;608899;235;23030;-80
2023/03/22 08:14:04;;;;;;;19.83;13.70;;;19.10;99.90;18.10;99772;;;;599188;236;24113;-80
2023/03/22 08:16:32;;;;;;;17.17;13.20;;;18.90;99.90;17.60;99770;;;;599307;236;23021;-77
2023/03/22 08:19:01;;;;;;;18.20;14.17;;;18.10;99.90;17.10;99762;;;;599029;236;23994;-78
2023/03/22 08:21:29;;;;;;;19.23;14.70;;;18.00;99.90;16.90;99763;;;;598833;236;23999;-78
2023/03/22 08:23:56;;;;;;;22.80;14.47;;;17.70;99.90;16.90;99769;;;;598947;236;25041;-77
2023/03/22 08:26:26;;;;;;;19.60;14.53;;;17.50;99.90;16.80;99764;;;;598879;236;24062;-77
2023/03/22 08:28:55;;;;;;;19.77;14.53;;;17.50;99.90;16.90;99765;;;;599285;236;24097;-79
2023/03/22 08:31:22;;;;;;;17.87;13.70;;;17.80;99.90;17.20;99758;;;;599419;236;24004;-79
2023/03/22 08:33:50;;;;;;;19.63;14.53;;;17.70;99.90;17.40;99763;;;;599336;236;24025;-77
2023/03/22 08:36:22;;;;;;;19.07;14.53;;;17.90;99.90;17.60;99763;;;;599295;236;23994;-76
2023/03/22 08:38:46;;;;;;;16.50;13.10;;;18.10;99.90;17.80;99765;;;;598342;236;24025;-77
2023/03/22 08:41:17;;;;;;;19.23;14.00;;;18.40;99.90;17.80;99761;;;;598738;236;24027;-77
2023/03/22 08:43:42;;;;;;;18.70;14.10;;;18.50;99.90;17.80;99757;;;;598544;236;24073;-77
2023/03/22 08:46:10;;;;;;;21.37;14.03;;;18.50;99.90;18.20;99769;;;;608324;236;23025;-79
2023/03/22 08:48:40;;;;;;;20.60;15.03;;;18.80;99.90;18.70;99766;;;;598702;236;23056;-80
2023/03/22 08:51:06;;;;;;;19.37;14.57;;;19.30;99.90;18.90;99770;;;;598482;236;24053;-80
2023/03/22 08:53:34;;;;;;;20.70;13.30;;;19.50;99.90;19.20;99759;;;;608245;236;24006;-79
2023/03/22 08:56:05;;;;;;;15.67;13.53;;;20.30;99.90;19.80;99761;;;;598562;236;23046;-77
2023/03/22 08:58:30;;;;;;;19.50;14.33;;;20.30;99.90;20.80;99770;;;;598349;236;24037;-76
2023/03/22 09:00:58;;;;;;;17.30;13.83;;;21.20;99.90;21.60;99767;;;;598653;236;24003;-76
2023/03/22 09:03:26;;;;;;;17.97;13.70;;;22.10;99.90;22.30;99765;;;;599032;236;24027;-77
2023/03/22 09:05:54;;;;;;;15.57;13.87;;;22.80;98.50;22.20;99760;;;;598728;236;24014;-77
2023/03/22 09:08:22;;;;;;;17.47;13.70;;;22.90;95.90;21.90;99762;;;;598626;236;24007;-78
2023/03/22 09:10:50;;;;;;;14.27;12.73;;;22.70;95.30;22.00;99760;;;;599260;236;23985;-76
2023/03/22 09:13:21;;;;;;;15.23;12.97;;;22.70;94.10;21.50;99760;;;;600582;236;24015;-76
2023/03/22 09:15:46;;;;;;;17.37;13.40;;;22.30;93.60;21.40;99756;;;;594122;236;24108;-77
2023/03/22 09:18:17;;;;;;;14.80;11.87;;;22.10;93.80;22.40;99744;;;;599702;236;23076;-78
2023/03/22 09:20:42;;;;;;;14.27;11.80;;;22.80;93.90;23.20;99747;;;;599524;236;23052;-81
2023/03/22 09:23:10;;;;;;;13.03;11.73;;;23.80;91.10;23.20;99741;;;;599663;236;24069;-77
2023/03/22 09:25:41;;;;;;;14.70;13.10;;;23.90;90.10;23.50;99740;;;;599580;236;24039;-77
2023/03/22 09:28:05;;;;;;;14.03;11.93;;;24.10;89.40;23.60;99748;;;;599565;236;23057;-79
2023/03/22 09:30:38;;;;;;;12.30;11.10;;;24.30;85.70;23.50;99748;;;;599810;236;23027;-80
2023/03/22 09:33:06;;;;;;;12.37;11.17;;;24.00;84.80;23.10;99746;;;;593446;236;24009;-76
2023/03/22 09:35:35;;;;;;;13.63;11.23;;;23.50;85.90;22.50;99744;;;;599274;236;24016;-76
2023/03/22 09:38:02;;;;;;;12.03;10.83;;;22.90;86.50;22.00;99743;;;;593001;236;24084;-78
2023/03/22 09:40:29;;;;;;;12.10;10.87;;;22.30;88.20;21.30;99749;;;;599172;236;23033;-82
2023/03/22 09:43:00;;;;;;;11.63;10.43;;;22.20;87.60;20.60;99750;;;;598793;236;25089;-79
2023/03/22 09:45:38;;;;;;;12.70;10.27;;;21.60;89.40;20.00;99745;;;;592877;236;24017;-77
2023/03/22 09:48:01;;;;;;;13.30;10.57;;;20.90;90.80;19.30;99741;;;;598906;236;24009;-76
2023/03/22 09:50:31;;;;;;;12.13;10.80;;;20.20;91.80;18.80;99741;;;;598701;236;24014;-80
2023/03/22 09:52:59;;;;;;;15.13;11.47;;;19.60;93.00;18.30;99739;;;;598702;236;24018;-82
2023/03/22 09:55:30;;;;;;;11.87;9.93;;;19.10;94.20;18.00;99746;;;;598442;236;24059;-80
2023/03/22 09:58:10;;;;;;;13.70;9.80;;;18.70;95.20;17.70;99741;;;;602036;238;23075;-81
2023/03/22 10:00:43;;;;;;;13.70;10.47;;;18.40;96.00;17.90;99744;;;;583454;242;24041;-80
2023/03/22 10:03:48;;;;;;;12.57;9.50;;;18.40;97.00;18.20;99738;;;;579725;243;24056;-80
2023/03/22 10:06:19;;;;;;;11.07;8.40;;;18.60;97.60;18.50;99731;;;;598638;236;24017;-77
2023/03/22 10:09:12;;;;;;;9.63;8.63;;;18.90;96.60;18.50;99735;;;;607116;236;24083;-78
2023/03/22 10:12:09;;;;;;;10.13;9.03;;;19.00;96.40;18.40;99733;;;;598555;236;24006;-76
2023/03/22 10:15:01;;;;;;;12.43;8.47;;;19.00;96.10;18.30;99738;;;;598187;236;24051;-76
2023/03/22 10:17:29;;;;;;;10.57;8.70;;;18.80;96.20;18.40;99732;;;;598558;236;24022;-77
2023/03/22 10:20:07;;;;;;;13.77;9.03;;;18.90;96.70;18.80;99731;;;;608028;236;24033;-76
2023/03/22 10:22:36;;;;;;;10.40;8.97;;;19.20;96.60;19.40;99728;;;;597501;236;23031;-77
2023/03/22 10:25:04;;;;;;;13.75;11.10;;;19.80;95.70;20.20;99731;;;;594682;236;45767;-76
2023/03/22 10:27:32;;;;;;;13.43;9.97;;;20.50;95.40;20.50;99724;;;;593395;236;24044;-77
2023/03/22 10:30:19;;;;;;;10.33;9.23;;;21.00;93.20;20.50;99732;;;;599820;236;24017;-79
2023/03/22 10:33:02;;;;;;;12.17;8.67;;;21.00;93.20;20.20;99716;;;;599463;236;24045;-76
2023/03/22 10:35:30;;;;;;;11.47;9.10;;;20.90;93.00;20.30;99720;;;;599638;236;24009;-78
2023/03/22 10:37:58;;;;;;;12.30;8.37;;;20.90;92.70;20.10;99726;;;;599607;236;24032;-76
2023/03/22 10:40:29;;;;;;;12.35;11.10;;;20.80;92.70;20.20;99717;;;;594323;236;34878;-76
2023/03/22 10:43:12;;;;;;;12.83;9.13;;;20.80;92.50;20.20;99711;;;;598567;236;24035;-76
2023/03/22 10:45:40;;;;;;;11.40;9.10;;;20.80;92.50;19.90;99714;;;;599639;234;24065;-77
2023/03/22 10:48:16;;;;;;;13.90;9.47;;;20.60;92.70;19.70;99712;;;;598029;236;24052;-77
2023/03/22 10:50:47;;;;;;;10.43;8.67;;;20.40;92.90;19.40;99710;;;;598603;236;24114;-77
2023/03/22 10:53:39;;;;;;;15.33;8.60;;;20.00;93.50;18.90;99703;;;;591997;236;24004;-78
2023/03/22 10:56:14;;;;;;;13.27;8.60;;;19.20;94.80;18.50;99705;;;;599031;236;24061;-76
2023/03/22 10:58:45;;;;;;;10.47;8.67;;;19.20;94.80;18.20;99706;;;;586164;241;24152;-77
2023/03/22 11:01:10;;;;;;;9.40;8.30;;;18.90;95.60;17.90;99695;;;;590104;243;24114;-81
2023/03/22 11:03:41;;;;;;;15.00;9.07;;;18.20;96.70;17.50;99694;;;;582451;243;23132;-75
2023/03/22 11:06:16;;;;;;;15.57;8.63;;;17.80;98.00;17.20;99697;;;;581856;243;23146;-72
2023/03/22 11:08:52;;;;;;;12.57;8.37;;;17.80;97.60;16.90;99697;;;;580466;243;24063;-77
2023/03/22 11:11:23;;;;;;;10.03;8.90;;;17.50;98.60;16.70;99683;;;;591001;243;24052;-79
2023/03/22 11:13:50;;;;;;;13.67;8.40;;;17.30;99.00;16.50;99676;;;;582654;243;24079;-74
2023/03/22 11:16:19;;;;;;;10.13;7.77;;;17.10;99.60;16.30;99677;;;;582197;243;24097;-78
2023/03/22 11:18:46;;;;;;;9.47;7.50;;;16.90;99.90;16.10;99680;;;;581528;243;24159;-76
2023/03/22 11:21:15;;;;;;;12.37;8.43;;;16.60;99.90;15.90;99683;;;;582312;243;24082;-76
2023/03/22 11:23:42;;;;;;;12.90;8.30;;;16.50;99.90;15.70;99687;;;;580703;243;24102;-74
2023/03/22 11:26:10;;;;;;;11.67;8.00;;;16.30;99.90;15.60;99689;;;;581762;243;24097;-77
2023/03/22 11:28:46;;;;;;;10.20;8.33;;;16.10;99.90;15.50;99698;;;;581626;243;24157;-74